METAR Data
IDs: Format: Raw Decoded Include TAF

Data at: 1602 UTC 24 Aug 2019

KMQY 241556Z 36006KT 10SM OVC012 24/20 A3011 RMK AO2 SLP090 T02390200